Terminal Aerodrome Forecast
Issued by NWS Jackson, MS

Home | Current Version | Previous Version | Text Only | Print | Product List | Glossary On
Versions: 1 2 3 4 5 6 7 8 9 10 11 12 13 14 15 16
000
FTUS44 KJAN 251738
TAFMEI
TAF
KMEI 251738Z 2518/2618 12008KT P6SM FEW035 FEW045
     FM260000 14004KT P6SM SKC
     FM260800 14002KT 4SM BR SKC
     FM261500 14006KT P6SM SCT250=

USA.gov is the U.S. government's official web portal to all federal, state and local government web resources and services.